Terminal Aerodrome Forecast
Issued by NWS Pueblo, CO

Home | Current Version | Previous Version | Text Only | Print | Product List | Glossary On
Versions: 1 2 3 4 5 6 7 8 9 10 11 12 13 14 15 16 17 18 19 20 21 22 23 24 25 26 27 28 29 30 31 32 33 34 35 36 37 38 39 40 41 42
000
FTUS45 KPUB 211137
TAFPUB
TAF
KPUB 211137Z 2112/2212 30011KT P6SM FEW150 SCT250
     FM212000 30020G30KT P6SM SCT250
     FM212200 34015G32KT P6SM SCT100 BKN150
     FM220200 02018G28KT P6SM SCT050 BKN100
     FM221000 07008KT P6SM SCT020 BKN030=

USA.gov is the U.S. government's official web portal to all federal, state and local government web resources and services.